sensor_id;sensor_type;location;lat;lon;timestamp;P1;durP1;ratioP1;P2;durP2;ratioP2
3563;SDS011;1796;52.388;13.096;2024-03-22T00:00:16;22.47;;;11.30;;
3563;SDS011;1796;52.388;13.096;2024-03-22T00:02:43;20.60;;;11.43;;
3563;SDS011;1796;52.388;13.096;2024-03-22T00:05:09;15.83;;;11.00;;
3563;SDS011;1796;52.388;13.096;2024-03-22T00:07:36;18.10;;;11.27;;
3563;SDS011;1796;52.388;13.096;2024-03-22T00:10:02;22.93;;;11.73;;
3563;SDS011;1796;52.388;13.096;2024-03-22T00:12:29;19.03;;;11.10;;
3563;SDS011;1796;52.388;13.096;2024-03-22T00:14:56;15.77;;;11.07;;
3563;SDS011;1796;52.388;13.096;2024-03-22T00:17:23;26.10;;;11.20;;
3563;SDS011;1796;52.388;13.096;2024-03-22T00:19:49;18.70;;;11.90;;
3563;SDS011;1796;52.388;13.096;2024-03-22T00:22:15;21.00;;;10.77;;
3563;SDS011;1796;52.388;13.096;2024-03-22T00:24:41;24.80;;;11.90;;
3563;SDS011;1796;52.388;13.096;2024-03-22T00:27:08;19.90;;;11.93;;
3563;SDS011;1796;52.388;13.096;2024-03-22T00:29:34;23.23;;;11.90;;
3563;SDS011;1796;52.388;13.096;2024-03-22T00:32:02;24.03;;;12.70;;
3563;SDS011;1796;52.388;13.096;2024-03-22T00:34:28;21.93;;;11.77;;
3563;SDS011;1796;52.388;13.096;2024-03-22T00:36:55;19.47;;;12.53;;
3563;SDS011;1796;52.388;13.096;2024-03-22T00:39:21;19.27;;;12.27;;
3563;SDS011;1796;52.388;13.096;2024-03-22T00:41:47;20.80;;;12.37;;
3563;SDS011;1796;52.388;13.096;2024-03-22T00:44:13;18.37;;;11.33;;
3563;SDS011;1796;52.388;13.096;2024-03-22T00:46:40;19.50;;;12.00;;
3563;SDS011;1796;52.388;13.096;2024-03-22T00:49:07;22.37;;;11.93;;
3563;SDS011;1796;52.388;13.096;2024-03-22T00:51:33;18.80;;;11.97;;
3563;SDS011;1796;52.388;13.096;2024-03-22T00:53:59;20.13;;;12.20;;
3563;SDS011;1796;52.388;13.096;2024-03-22T00:56:26;25.13;;;12.57;;
3563;SDS011;1796;52.388;13.096;2024-03-22T00:58:52;20.70;;;11.67;;
3563;SDS011;1796;52.388;13.096;2024-03-22T01:01:18;20.47;;;11.60;;
3563;SDS011;1796;52.388;13.096;2024-03-22T01:03:44;18.80;;;10.67;;
3563;SDS011;1796;52.388;13.096;2024-03-22T01:06:12;23.83;;;12.20;;
3563;SDS011;1796;52.388;13.096;2024-03-22T01:08:38;19.80;;;11.67;;
3563;SDS011;1796;52.388;13.096;2024-03-22T01:11:05;26.27;;;12.53;;
3563;SDS011;1796;52.388;13.096;2024-03-22T01:13:30;21.00;;;11.47;;
3563;SDS011;1796;52.388;13.096;2024-03-22T01:15:57;26.80;;;12.93;;
3563;SDS011;1796;52.388;13.096;2024-03-22T01:18:23;29.77;;;11.13;;
3563;SDS011;1796;52.388;13.096;2024-03-22T01:20:49;23.83;;;11.80;;
3563;SDS011;1796;52.388;13.096;2024-03-22T01:23:16;23.13;;;12.43;;
3563;SDS011;1796;52.388;13.096;2024-03-22T01:25:44;27.17;;;12.03;;
3563;SDS011;1796;52.388;13.096;2024-03-22T01:28:10;22.43;;;11.87;;
3563;SDS011;1796;52.388;13.096;2024-03-22T01:30:37;24.57;;;13.60;;
3563;SDS011;1796;52.388;13.096;2024-03-22T01:33:02;21.10;;;12.50;;
3563;SDS011;1796;52.388;13.096;2024-03-22T01:35:29;25.20;;;13.20;;
3563;SDS011;1796;52.388;13.096;2024-03-22T01:37:55;25.03;;;11.67;;
3563;SDS011;1796;52.388;13.096;2024-03-22T01:40:23;24.03;;;12.07;;
3563;SDS011;1796;52.388;13.096;2024-03-22T01:42:52;22.50;;;11.17;;
3563;SDS011;1796;52.388;13.096;2024-03-22T01:45:19;19.37;;;12.20;;
3563;SDS011;1796;52.388;13.096;2024-03-22T01:47:45;21.50;;;11.20;;
3563;SDS011;1796;52.388;13.096;2024-03-22T01:50:12;21.80;;;11.73;;
3563;SDS011;1796;52.388;13.096;2024-03-22T01:52:38;21.10;;;10.80;;
3563;SDS011;1796;52.388;13.096;2024-03-22T01:55:06;21.60;;;12.33;;
3563;SDS011;1796;52.388;13.096;2024-03-22T01:57:34;19.97;;;11.27;;
3563;SDS011;1796;52.388;13.096;2024-03-22T02:00:02;25.23;;;11.80;;
3563;SDS011;1796;52.388;13.096;2024-03-22T02:02:28;24.40;;;12.50;;
3563;SDS011;1796;52.388;13.096;2024-03-22T02:04:55;23.07;;;11.80;;
3563;SDS011;1796;52.388;13.096;2024-03-22T02:07:21;21.07;;;11.40;;
3563;SDS011;1796;52.388;13.096;2024-03-22T02:09:48;23.90;;;11.60;;
3563;SDS011;1796;52.388;13.096;2024-03-22T02:12:14;24.27;;;12.67;;
3563;SDS011;1796;52.388;13.096;2024-03-22T02:14:43;21.63;;;11.50;;
3563;SDS011;1796;52.388;13.096;2024-03-22T02:17:09;19.37;;;11.30;;
3563;SDS011;1796;52.388;13.096;2024-03-22T02:19:35;22.83;;;11.47;;
3563;SDS011;1796;52.388;13.096;2024-03-22T02:22:01;19.77;;;10.93;;
3563;SDS011;1796;52.388;13.096;2024-03-22T02:24:29;23.63;;;12.47;;
3563;SDS011;1796;52.388;13.096;2024-03-22T02:26:55;20.23;;;11.90;;
3563;SDS011;1796;52.388;13.096;2024-03-22T02:29:22;18.83;;;11.93;;
3563;SDS011;1796;52.388;13.096;2024-03-22T02:31:48;19.03;;;11.77;;
3563;SDS011;1796;52.388;13.096;2024-03-22T02:34:14;17.47;;;11.63;;
3563;SDS011;1796;52.388;13.096;2024-03-22T02:36:40;19.50;;;12.50;;
3563;SDS011;1796;52.388;13.096;2024-03-22T02:39:07;20.87;;;11.90;;
3563;SDS011;1796;52.388;13.096;2024-03-22T02:41:34;18.23;;;10.73;;
3563;SDS011;1796;52.388;13.096;2024-03-22T02:44:01;19.23;;;11.23;;
3563;SDS011;1796;52.388;13.096;2024-03-22T02:46:27;18.43;;;10.80;;
3563;SDS011;1796;52.388;13.096;2024-03-22T02:48:54;17.17;;;10.90;;
3563;SDS011;1796;52.388;13.096;2024-03-22T02:51:20;21.07;;;11.53;;
3563;SDS011;1796;52.388;13.096;2024-03-22T02:53:47;19.80;;;11.10;;
3563;SDS011;1796;52.388;13.096;2024-03-22T02:56:13;18.93;;;11.77;;
3563;SDS011;1796;52.388;13.096;2024-03-22T02:58:41;23.67;;;12.53;;
3563;SDS011;1796;52.388;13.096;2024-03-22T03:01:07;19.00;;;11.20;;
3563;SDS011;1796;52.388;13.096;2024-03-22T03:03:34;19.40;;;11.20;;
3563;SDS011;1796;52.388;13.096;2024-03-22T03:05:59;23.50;;;11.00;;
3563;SDS011;1796;52.388;13.096;2024-03-22T03:08:26;17.50;;;10.17;;
3563;SDS011;1796;52.388;13.096;2024-03-22T03:10:52;18.17;;;10.97;;
3563;SDS011;1796;52.388;13.096;2024-03-22T03:13:19;18.70;;;10.47;;
3563;SDS011;1796;52.388;13.096;2024-03-22T03:15:46;23.70;;;10.43;;
3563;SDS011;1796;52.388;13.096;2024-03-22T03:18:12;15.60;;;10.73;;
3563;SDS011;1796;52.388;13.096;2024-03-22T03:20:38;21.20;;;10.07;;
3563;SDS011;1796;52.388;13.096;2024-03-22T03:23:05;18.07;;;10.73;;
3563;SDS011;1796;52.388;13.096;2024-03-22T03:25:30;25.57;;;11.90;;
3563;SDS011;1796;52.388;13.096;2024-03-22T03:27:57;17.57;;;10.90;;
3563;SDS011;1796;52.388;13.096;2024-03-22T03:30:23;17.87;;;11.00;;
3563;SDS011;1796;52.388;13.096;2024-03-22T03:32:52;14.60;;;8.73;;
3563;SDS011;1796;52.388;13.096;2024-03-22T03:35:17;17.87;;;10.40;;
3563;SDS011;1796;52.388;13.096;2024-03-22T03:37:44;19.73;;;10.80;;
3563;SDS011;1796;52.388;13.096;2024-03-22T03:40:10;15.33;;;9.60;;
3563;SDS011;1796;52.388;13.096;2024-03-22T03:42:37;16.90;;;9.77;;
3563;SDS011;1796;52.388;13.096;2024-03-22T03:45:03;19.70;;;10.00;;
3563;SDS011;1796;52.388;13.096;2024-03-22T03:47:30;16.20;;;10.27;;
3563;SDS011;1796;52.388;13.096;2024-03-22T03:49:57;14.10;;;9.70;;
3563;SDS011;1796;52.388;13.096;2024-03-22T03:52:24;16.40;;;9.90;;
3563;SDS011;1796;52.388;13.096;2024-03-22T03:54:50;16.50;;;9.90;;
3563;SDS011;1796;52.388;13.096;2024-03-22T03:57:16;13.90;;;9.13;;
3563;SDS011;1796;52.388;13.096;2024-03-22T03:59:42;17.00;;;10.27;;
3563;SDS011;1796;52.388;13.096;2024-03-22T04:02:09;13.50;;;9.10;;
3563;SDS011;1796;52.388;13.096;2024-03-22T04:04:35;18.13;;;10.10;;
3563;SDS011;1796;52.388;13.096;2024-03-22T04:07:03;14.77;;;9.57;;
3563;SDS011;1796;52.388;13.096;2024-03-22T04:09:29;20.83;;;10.70;;
3563;SDS011;1796;52.388;13.096;2024-03-22T04:11:56;14.60;;;8.80;;
3563;SDS011;1796;52.388;13.096;2024-03-22T04:14:23;21.80;;;10.53;;
3563;SDS011;1796;52.388;13.096;2024-03-22T04:16:50;13.97;;;9.40;;
3563;SDS011;1796;52.388;13.096;2024-03-22T04:19:16;21.30;;;10.10;;
3563;SDS011;1796;52.388;13.096;2024-03-22T04:21:43;14.93;;;9.40;;
3563;SDS011;1796;52.388;13.096;2024-03-22T04:24:10;14.27;;;9.23;;
3563;SDS011;1796;52.388;13.096;2024-03-22T04:26:36;18.83;;;9.70;;
3563;SDS011;1796;52.388;13.096;2024-03-22T04:29:02;11.73;;;9.03;;
3563;SDS011;1796;52.388;13.096;2024-03-22T04:31:29;17.83;;;10.03;;
3563;SDS011;1796;52.388;13.096;2024-03-22T04:33:55;13.63;;;9.07;;
3563;SDS011;1796;52.388;13.096;2024-03-22T04:36:22;22.97;;;9.57;;
3563;SDS011;1796;52.388;13.096;2024-03-22T04:38:48;18.77;;;9.77;;
3563;SDS011;1796;52.388;13.096;2024-03-22T04:41:16;16.97;;;9.80;;
3563;SDS011;1796;52.388;13.096;2024-03-22T04:43:42;18.27;;;9.30;;
3563;SDS011;1796;52.388;13.096;2024-03-22T04:46:09;15.03;;;9.90;;
3563;SDS011;1796;52.388;13.096;2024-03-22T04:48:35;13.10;;;8.83;;
3563;SDS011;1796;52.388;13.096;2024-03-22T04:51:02;14.67;;;9.83;;
3563;SDS011;1796;52.388;13.096;2024-03-22T04:53:27;15.27;;;9.37;;
3563;SDS011;1796;52.388;13.096;2024-03-22T04:55:54;18.00;;;8.90;;
3563;SDS011;1796;52.388;13.096;2024-03-22T04:58:21;15.17;;;9.20;;
3563;SDS011;1796;52.388;13.096;2024-03-22T05:00:49;17.13;;;10.23;;
3563;SDS011;1796;52.388;13.096;2024-03-22T05:03:21;15.27;;;9.23;;
3563;SDS011;1796;52.388;13.096;2024-03-22T05:05:49;14.13;;;9.40;;
3563;SDS011;1796;52.388;13.096;2024-03-22T05:08:15;12.57;;;8.07;;
3563;SDS011;1796;52.388;13.096;2024-03-22T05:10:42;17.53;;;9.40;;
3563;SDS011;1796;52.388;13.096;2024-03-22T05:13:08;13.27;;;9.00;;
3563;SDS011;1796;52.388;13.096;2024-03-22T05:15:36;19.63;;;10.23;;
3563;SDS011;1796;52.388;13.096;2024-03-22T05:18:01;19.77;;;9.53;;
3563;SDS011;1796;52.388;13.096;2024-03-22T05:20:29;13.37;;;8.97;;
3563;SDS011;1796;52.388;13.096;2024-03-22T05:22:55;14.30;;;8.73;;
3563;SDS011;1796;52.388;13.096;2024-03-22T05:25:22;14.60;;;8.93;;
3563;SDS011;1796;52.388;13.096;2024-03-22T05:27:48;18.93;;;9.97;;
3563;SDS011;1796;52.388;13.096;2024-03-22T05:30:20;11.63;;;8.40;;
3563;SDS011;1796;52.388;13.096;2024-03-22T05:32:48;27.30;;;10.00;;
3563;SDS011;1796;52.388;13.096;2024-03-22T05:35:15;12.40;;;8.30;;
3563;SDS011;1796;52.388;13.096;2024-03-22T05:37:41;17.07;;;9.47;;
3563;SDS011;1796;52.388;13.096;2024-03-22T05:40:08;16.10;;;9.67;;
3563;SDS011;1796;52.388;13.096;2024-03-22T05:42:35;12.23;;;8.30;;
3563;SDS011;1796;52.388;13.096;2024-03-22T05:45:01;14.07;;;8.80;;
3563;SDS011;1796;52.388;13.096;2024-03-22T05:47:27;12.43;;;8.50;;
3563;SDS011;1796;52.388;13.096;2024-03-22T05:52:26;20.93;;;9.43;;
3563;SDS011;1796;52.388;13.096;2024-03-22T05:54:54;13.90;;;9.53;;
3563;SDS011;1796;52.388;13.096;2024-03-22T05:57:20;16.53;;;9.90;;
3563;SDS011;1796;52.388;13.096;2024-03-22T05:59:47;26.47;;;8.70;;
3563;SDS011;1796;52.388;13.096;2024-03-22T06:02:14;16.27;;;9.20;;
3563;SDS011;1796;52.388;13.096;2024-03-22T06:04:41;12.80;;;9.60;;
3563;SDS011;1796;52.388;13.096;2024-03-22T06:07:07;21.33;;;9.73;;
3563;SDS011;1796;52.388;13.096;2024-03-22T06:09:36;15.10;;;8.77;;
3563;SDS011;1796;52.388;13.096;2024-03-22T06:12:02;15.23;;;10.27;;
3563;SDS011;1796;52.388;13.096;2024-03-22T06:14:30;14.57;;;9.80;;
3563;SDS011;1796;52.388;13.096;2024-03-22T06:16:56;18.60;;;9.87;;
3563;SDS011;1796;52.388;13.096;2024-03-22T06:19:23;16.17;;;9.90;;
3563;SDS011;1796;52.388;13.096;2024-03-22T06:21:49;16.60;;;10.30;;
3563;SDS011;1796;52.388;13.096;2024-03-22T06:24:16;19.30;;;10.87;;
3563;SDS011;1796;52.388;13.096;2024-03-22T06:26:43;18.20;;;10.70;;
3563;SDS011;1796;52.388;13.096;2024-03-22T06:29:10;17.90;;;10.70;;
3563;SDS011;1796;52.388;13.096;2024-03-22T06:31:35;15.97;;;10.37;;
3563;SDS011;1796;52.388;13.096;2024-03-22T06:34:02;16.90;;;11.00;;
3563;SDS011;1796;52.388;13.096;2024-03-22T06:36:28;21.70;;;11.53;;
3563;SDS011;1796;52.388;13.096;2024-03-22T06:38:56;19.23;;;10.50;;
3563;SDS011;1796;52.388;13.096;2024-03-22T06:41:21;18.30;;;11.83;;
3563;SDS011;1796;52.388;13.096;2024-03-22T06:43:50;23.50;;;12.23;;
3563;SDS011;1796;52.388;13.096;2024-03-22T06:46:16;18.13;;;10.97;;
3563;SDS011;1796;52.388;13.096;2024-03-22T06:48:42;23.93;;;12.23;;
3563;SDS011;1796;52.388;13.096;2024-03-22T06:51:08;25.87;;;12.50;;
3563;SDS011;1796;52.388;13.096;2024-03-22T06:53:35;19.67;;;12.03;;
3563;SDS011;1796;52.388;13.096;2024-03-22T06:56:01;20.57;;;11.50;;
3563;SDS011;1796;52.388;13.096;2024-03-22T06:58:27;21.97;;;11.23;;
3563;SDS011;1796;52.388;13.096;2024-03-22T07:00:55;19.80;;;11.90;;
3563;SDS011;1796;52.388;13.096;2024-03-22T07:03:21;20.10;;;11.77;;
3563;SDS011;1796;52.388;13.096;2024-03-22T07:05:47;21.97;;;11.07;;
3563;SDS011;1796;52.388;13.096;2024-03-22T07:08:14;21.83;;;12.40;;
3563;SDS011;1796;52.388;13.096;2024-03-22T07:10:40;21.60;;;11.97;;
3563;SDS011;1796;52.388;13.096;2024-03-22T07:13:07;21.10;;;12.53;;
3563;SDS011;1796;52.388;13.096;2024-03-22T07:15:33;30.20;;;13.40;;
3563;SDS011;1796;52.388;13.096;2024-03-22T07:18:01;20.43;;;12.50;;
3563;SDS011;1796;52.388;13.096;2024-03-22T07:20:28;26.03;;;13.33;;
3563;SDS011;1796;52.388;13.096;2024-03-22T07:22:56;21.63;;;13.23;;
3563;SDS011;1796;52.388;13.096;2024-03-22T07:25:22;24.03;;;12.60;;
3563;SDS011;1796;52.388;13.096;2024-03-22T07:27:49;19.10;;;12.53;;
3563;SDS011;1796;52.388;13.096;2024-03-22T07:30:14;27.30;;;14.10;;
3563;SDS011;1796;52.388;13.096;2024-03-22T07:32:41;23.77;;;12.90;;
3563;SDS011;1796;52.388;13.096;2024-03-22T07:35:08;24.90;;;13.80;;
3563;SDS011;1796;52.388;13.096;2024-03-22T07:37:35;21.53;;;12.97;;
3563;SDS011;1796;52.388;13.096;2024-03-22T07:40:01;22.77;;;13.93;;
3563;SDS011;1796;52.388;13.096;2024-03-22T07:42:28;23.30;;;13.37;;
3563;SDS011;1796;52.388;13.096;2024-03-22T07:44:54;29.83;;;13.53;;
3563;SDS011;1796;52.388;13.096;2024-03-22T07:47:21;24.97;;;12.23;;
3563;SDS011;1796;52.388;13.096;2024-03-22T07:49:46;21.10;;;13.23;;
3563;SDS011;1796;52.388;13.096;2024-03-22T07:52:14;21.63;;;13.47;;
3563;SDS011;1796;52.388;13.096;2024-03-22T07:54:40;26.57;;;12.60;;
3563;SDS011;1796;52.388;13.096;2024-03-22T07:57:07;22.03;;;13.30;;
3563;SDS011;1796;52.388;13.096;2024-03-22T07:59:33;19.37;;;12.97;;
3563;SDS011;1796;52.388;13.096;2024-03-22T08:01:59;30.57;;;12.30;;
3563;SDS011;1796;52.388;13.096;2024-03-22T08:04:25;21.93;;;13.10;;
3563;SDS011;1796;52.388;13.096;2024-03-22T08:06:53;24.73;;;12.37;;
3563;SDS011;1796;52.388;13.096;2024-03-22T08:09:20;17.87;;;12.07;;
3563;SDS011;1796;52.388;13.096;2024-03-22T08:11:47;21.10;;;14.50;;
3563;SDS011;1796;52.388;13.096;2024-03-22T08:14:13;20.97;;;12.63;;
3563;SDS011;1796;52.388;13.096;2024-03-22T08:16:41;22.53;;;12.67;;
3563;SDS011;1796;52.388;13.096;2024-03-22T08:19:07;27.47;;;13.97;;
3563;SDS011;1796;52.388;13.096;2024-03-22T08:21:34;20.57;;;12.63;;
3563;SDS011;1796;52.388;13.096;2024-03-22T08:24:01;20.93;;;12.60;;
3563;SDS011;1796;52.388;13.096;2024-03-22T08:26:29;21.57;;;13.23;;
3563;SDS011;1796;52.388;13.096;2024-03-22T08:28:55;16.40;;;12.27;;
3563;SDS011;1796;52.388;13.096;2024-03-22T08:31:22;17.53;;;12.57;;
3563;SDS011;1796;52.388;13.096;2024-03-22T08:33:50;28.67;;;13.37;;
3563;SDS011;1796;52.388;13.096;2024-03-22T08:36:17;28.83;;;14.07;;
3563;SDS011;1796;52.388;13.096;2024-03-22T08:38:43;19.00;;;11.37;;
3563;SDS011;1796;52.388;13.096;2024-03-22T08:41:10;20.20;;;13.97;;
3563;SDS011;1796;52.388;13.096;2024-03-22T08:43:37;20.70;;;13.10;;
3563;SDS011;1796;52.388;13.096;2024-03-22T08:46:04;18.60;;;13.27;;
3563;SDS011;1796;52.388;13.096;2024-03-22T08:48:29;21.97;;;12.80;;
3563;SDS011;1796;52.388;13.096;2024-03-22T08:50:56;26.00;;;13.47;;
3563;SDS011;1796;52.388;13.096;2024-03-22T08:53:22;23.40;;;13.30;;
3563;SDS011;1796;52.388;13.096;2024-03-22T08:55:49;20.00;;;13.17;;
3563;SDS011;1796;52.388;13.096;2024-03-22T08:58:15;20.07;;;11.97;;
3563;SDS011;1796;52.388;13.096;2024-03-22T09:00:44;26.17;;;13.93;;
3563;SDS011;1796;52.388;13.096;2024-03-22T09:03:10;20.90;;;13.67;;
3563;SDS011;1796;52.388;13.096;2024-03-22T09:05:37;19.93;;;13.17;;
3563;SDS011;1796;52.388;13.096;2024-03-22T09:08:03;21.13;;;12.87;;
3563;SDS011;1796;52.388;13.096;2024-03-22T09:10:30;22.30;;;11.90;;
3563;SDS011;1796;52.388;13.096;2024-03-22T09:12:56;21.10;;;11.57;;
3563;SDS011;1796;52.388;13.096;2024-03-22T09:15:22;20.93;;;12.73;;
3563;SDS011;1796;52.388;13.096;2024-03-22T09:17:51;23.60;;;12.53;;
3563;SDS011;1796;52.388;13.096;2024-03-22T09:20:18;22.30;;;12.47;;
3563;SDS011;1796;52.388;13.096;2024-03-22T09:22:44;20.20;;;12.07;;
3563;SDS011;1796;52.388;13.096;2024-03-22T09:25:10;18.97;;;11.30;;
3563;SDS011;1796;52.388;13.096;2024-03-22T09:27:36;23.33;;;12.20;;
3563;SDS011;1796;52.388;13.096;2024-03-22T09:30:03;21.07;;;12.50;;
3563;SDS011;1796;52.388;13.096;2024-03-22T09:32:30;19.93;;;12.20;;
3563;SDS011;1796;52.388;13.096;2024-03-22T09:34:58;17.77;;;12.00;;
3563;SDS011;1796;52.388;13.096;2024-03-22T09:37:24;20.73;;;11.90;;
3563;SDS011;1796;52.388;13.096;2024-03-22T09:39:51;16.90;;;11.80;;
3563;SDS011;1796;52.388;13.096;2024-03-22T09:42:17;17.83;;;11.87;;
3563;SDS011;1796;52.388;13.096;2024-03-22T09:44:45;17.73;;;10.70;;
3563;SDS011;1796;52.388;13.096;2024-03-22T09:47:14;17.30;;;10.80;;
3563;SDS011;1796;52.388;13.096;2024-03-22T09:49:41;19.40;;;11.17;;
3563;SDS011;1796;52.388;13.096;2024-03-22T09:52:12;43.77;;;12.60;;
3563;SDS011;1796;52.388;13.096;2024-03-22T09:54:40;16.57;;;11.17;;
3563;SDS011;1796;52.388;13.096;2024-03-22T09:57:07;24.77;;;11.30;;
3563;SDS011;1796;52.388;13.096;2024-03-22T09:59:37;14.50;;;10.00;;
3563;SDS011;1796;52.388;13.096;2024-03-22T10:02:04;19.77;;;10.90;;
3563;SDS011;1796;52.388;13.096;2024-03-22T10:04:31;22.50;;;12.00;;
3563;SDS011;1796;52.388;13.096;2024-03-22T10:06:57;26.70;;;11.83;;
3563;SDS011;1796;52.388;13.096;2024-03-22T10:09:29;18.27;;;10.80;;
3563;SDS011;1796;52.388;13.096;2024-03-22T10:11:55;27.47;;;10.10;;
3563;SDS011;1796;52.388;13.096;2024-03-22T10:14:21;20.23;;;11.17;;
3563;SDS011;1796;52.388;13.096;2024-03-22T10:16:50;13.73;;;9.87;;
3563;SDS011;1796;52.388;13.096;2024-03-22T10:19:18;16.20;;;10.37;;
3563;SDS011;1796;52.388;13.096;2024-03-22T10:21:44;25.17;;;11.60;;
3563;SDS011;1796;52.388;13.096;2024-03-22T10:24:14;18.03;;;10.97;;
3563;SDS011;1796;52.388;13.096;2024-03-22T10:26:42;11.90;;;9.50;;
3563;SDS011;1796;52.388;13.096;2024-03-22T10:29:10;16.47;;;10.20;;
3563;SDS011;1796;52.388;13.096;2024-03-22T10:31:37;16.00;;;10.37;;
3563;SDS011;1796;52.388;13.096;2024-03-22T10:34:04;16.43;;;10.60;;
3563;SDS011;1796;52.388;13.096;2024-03-22T10:36:30;16.73;;;9.97;;
3563;SDS011;1796;52.388;13.096;2024-03-22T10:38:59;14.60;;;9.40;;
3563;SDS011;1796;52.388;13.096;2024-03-22T10:41:26;13.97;;;9.43;;
3563;SDS011;1796;52.388;13.096;2024-03-22T10:43:54;17.93;;;10.10;;
3563;SDS011;1796;52.388;13.096;2024-03-22T10:46:21;13.90;;;9.50;;
3563;SDS011;1796;52.388;13.096;2024-03-22T10:48:49;12.93;;;9.17;;
3563;SDS011;1796;52.388;13.096;2024-03-22T10:51:15;14.60;;;9.60;;
3563;SDS011;1796;52.388;13.096;2024-03-22T10:53:43;16.37;;;10.53;;
3563;SDS011;1796;52.388;13.096;2024-03-22T10:56:10;21.07;;;10.37;;
3563;SDS011;1796;52.388;13.096;2024-03-22T10:58:39;20.97;;;10.33;;
3563;SDS011;1796;52.388;13.096;2024-03-22T11:01:07;13.80;;;9.67;;
3563;SDS011;1796;52.388;13.096;2024-03-22T11:03:48;15.67;;;11.50;;
3563;SDS011;1796;52.388;13.096;2024-03-22T11:06:17;15.30;;;9.93;;
3563;SDS011;1796;52.388;13.096;2024-03-22T11:08:44;14.57;;;10.30;;
3563;SDS011;1796;52.388;13.096;2024-03-22T11:11:15;20.13;;;11.77;;
3563;SDS011;1796;52.388;13.096;2024-03-22T11:13:46;17.67;;;10.47;;
3563;SDS011;1796;52.388;13.096;2024-03-22T11:16:14;16.27;;;10.40;;
3563;SDS011;1796;52.388;13.096;2024-03-22T11:18:41;18.30;;;10.97;;
3563;SDS011;1796;52.388;13.096;2024-03-22T11:21:07;19.90;;;10.10;;
3563;SDS011;1796;52.388;13.096;2024-03-22T11:23:34;16.30;;;10.03;;
3563;SDS011;1796;52.388;13.096;2024-03-22T11:26:01;14.30;;;10.40;;
3563;SDS011;1796;52.388;13.096;2024-03-22T11:28:28;21.33;;;11.80;;
3563;SDS011;1796;52.388;13.096;2024-03-22T11:30:54;16.40;;;10.80;;
3563;SDS011;1796;52.388;13.096;2024-03-22T11:33:22;17.53;;;10.80;;
3563;SDS011;1796;52.388;13.096;2024-03-22T11:35:48;21.07;;;12.37;;
3563;SDS011;1796;52.388;13.096;2024-03-22T11:38:15;22.10;;;11.80;;
3563;SDS011;1796;52.388;13.096;2024-03-22T11:40:41;19.03;;;11.73;;
3563;SDS011;1796;52.388;13.096;2024-03-22T11:43:08;24.50;;;11.30;;
3563;SDS011;1796;52.388;13.096;2024-03-22T11:45:34;22.10;;;12.37;;
3563;SDS011;1796;52.388;13.096;2024-03-22T11:48:02;22.43;;;12.70;;
3563;SDS011;1796;52.388;13.096;2024-03-22T11:50:31;17.77;;;10.47;;
3563;SDS011;1796;52.388;13.096;2024-03-22T11:52:57;17.87;;;12.10;;
3563;SDS011;1796;52.388;13.096;2024-03-22T11:55:26;23.90;;;12.10;;
3563;SDS011;1796;52.388;13.096;2024-03-22T11:57:53;22.10;;;12.83;;
3563;SDS011;1796;52.388;13.096;2024-03-22T12:00:20;20.67;;;13.50;;
3563;SDS011;1796;52.388;13.096;2024-03-22T12:02:47;22.23;;;13.43;;
3563;SDS011;1796;52.388;13.096;2024-03-22T12:05:16;23.73;;;12.67;;
3563;SDS011;1796;52.388;13.096;2024-03-22T12:07:44;21.43;;;12.37;;
3563;SDS011;1796;52.388;13.096;2024-03-22T12:10:10;22.00;;;14.00;;
3563;SDS011;1796;52.388;13.096;2024-03-22T12:12:36;28.23;;;12.83;;
3563;SDS011;1796;52.388;13.096;2024-03-22T12:15:03;26.73;;;14.53;;
3563;SDS011;1796;52.388;13.096;2024-03-22T12:17:30;26.13;;;14.60;;
3563;SDS011;1796;52.388;13.096;2024-03-22T12:19:56;25.37;;;14.20;;
3563;SDS011;1796;52.388;13.096;2024-03-22T12:22:22;25.23;;;14.77;;
3563;SDS011;1796;52.388;13.096;2024-03-22T12:24:52;31.30;;;16.20;;
3563;SDS011;1796;52.388;13.096;2024-03-22T12:27:17;29.30;;;15.30;;
3563;SDS011;1796;52.388;13.096;2024-03-22T12:29:44;32.63;;;14.97;;
3563;SDS011;1796;52.388;13.096;2024-03-22T12:32:10;36.63;;;13.97;;
3563;SDS011;1796;52.388;13.096;2024-03-22T12:34:37;27.50;;;15.40;;
3563;SDS011;1796;52.388;13.096;2024-03-22T12:37:02;29.47;;;15.97;;
3563;SDS011;1796;52.388;13.096;2024-03-22T12:39:29;33.67;;;15.43;;
3563;SDS011;1796;52.388;13.096;2024-03-22T12:41:58;29.10;;;14.60;;
3563;SDS011;1796;52.388;13.096;2024-03-22T12:44:25;26.60;;;15.13;;
3563;SDS011;1796;52.388;13.096;2024-03-22T12:46:51;33.07;;;16.17;;
3563;SDS011;1796;52.388;13.096;2024-03-22T12:49:19;31.40;;;15.70;;
3563;SDS011;1796;52.388;13.096;2024-03-22T12:51:45;32.13;;;14.27;;
3563;SDS011;1796;52.388;13.096;2024-03-22T12:54:13;30.63;;;14.23;;
3563;SDS011;1796;52.388;13.096;2024-03-22T12:56:39;31.60;;;14.87;;
3563;SDS011;1796;52.388;13.096;2024-03-22T12:59:08;29.70;;;15.57;;
3563;SDS011;1796;52.388;13.096;2024-03-22T13:01:33;27.23;;;14.67;;
3563;SDS011;1796;52.388;13.096;2024-03-22T13:04:01;30.73;;;15.97;;
3563;SDS011;1796;52.388;13.096;2024-03-22T13:06:28;22.17;;;13.30;;
3563;SDS011;1796;52.388;13.096;2024-03-22T13:08:55;25.70;;;12.90;;
3563;SDS011;1796;52.388;13.096;2024-03-22T13:11:21;21.77;;;11.93;;
3563;SDS011;1796;52.388;13.096;2024-03-22T13:13:47;20.27;;;11.07;;
3563;SDS011;1796;52.388;13.096;2024-03-22T13:16:15;20.97;;;13.23;;
3563;SDS011;1796;52.388;13.096;2024-03-22T13:18:41;29.83;;;14.50;;
3563;SDS011;1796;52.388;13.096;2024-03-22T13:21:07;27.70;;;13.70;;
3563;SDS011;1796;52.388;13.096;2024-03-22T13:23:34;24.10;;;14.23;;
3563;SDS011;1796;52.388;13.096;2024-03-22T13:26:02;31.97;;;14.13;;
3563;SDS011;1796;52.388;13.096;2024-03-22T13:28:29;26.47;;;12.97;;
3563;SDS011;1796;52.388;13.096;2024-03-22T13:30:59;23.03;;;13.50;;
3563;SDS011;1796;52.388;13.096;2024-03-22T13:33:29;26.13;;;12.50;;
3563;SDS011;1796;52.388;13.096;2024-03-22T13:35:55;26.30;;;14.40;;
3563;SDS011;1796;52.388;13.096;2024-03-22T13:38:24;29.47;;;14.97;;
3563;SDS011;1796;52.388;13.096;2024-03-22T13:40:54;30.40;;;14.00;;
3563;SDS011;1796;52.388;13.096;2024-03-22T13:43:21;24.80;;;13.30;;
3563;SDS011;1796;52.388;13.096;2024-03-22T13:45:48;29.73;;;14.40;;
3563;SDS011;1796;52.388;13.096;2024-03-22T13:48:20;38.30;;;19.83;;
3563;SDS011;1796;52.388;13.096;2024-03-22T13:50:50;29.30;;;14.83;;
3563;SDS011;1796;52.388;13.096;2024-03-22T13:53:21;29.93;;;14.57;;
3563;SDS011;1796;52.388;13.096;2024-03-22T13:55:47;28.43;;;14.23;;
3563;SDS011;1796;52.388;13.096;2024-03-22T13:58:14;34.60;;;15.70;;
3563;SDS011;1796;52.388;13.096;2024-03-22T14:00:40;31.10;;;14.50;;
3563;SDS011;1796;52.388;13.096;2024-03-22T14:03:07;27.90;;;14.47;;
3563;SDS011;1796;52.388;13.096;2024-03-22T14:05:33;28.20;;;14.87;;
3563;SDS011;1796;52.388;13.096;2024-03-22T14:08:02;27.13;;;15.33;;
3563;SDS011;1796;52.388;13.096;2024-03-22T14:10:29;45.07;;;17.50;;
3563;SDS011;1796;52.388;13.096;2024-03-22T14:12:56;31.07;;;16.27;;
3563;SDS011;1796;52.388;13.096;2024-03-22T14:15:22;29.37;;;15.33;;
3563;SDS011;1796;52.388;13.096;2024-03-22T14:17:52;33.47;;;17.00;;
3563;SDS011;1796;52.388;13.096;2024-03-22T14:20:18;32.50;;;14.90;;
3563;SDS011;1796;52.388;13.096;2024-03-22T14:22:46;28.33;;;15.93;;
3563;SDS011;1796;52.388;13.096;2024-03-22T14:25:14;36.77;;;16.00;;
3563;SDS011;1796;52.388;13.096;2024-03-22T14:27:42;35.63;;;16.17;;
3563;SDS011;1796;52.388;13.096;2024-03-22T14:30:11;35.97;;;17.23;;
3563;SDS011;1796;52.388;13.096;2024-03-22T14:32:39;38.23;;;17.57;;
3563;SDS011;1796;52.388;13.096;2024-03-22T14:35:06;37.67;;;17.03;;